sensor_id;sensor_type;location;lat;lon;timestamp;P1;durP1;ratioP1;P2;durP2;ratioP2
71973;SDS011;59840;52.122;5.404;2023-03-11T00:00:36;0.88;;;0.20;;
71973;SDS011;59840;52.122;5.404;2023-03-11T00:03:06;2.88;;;0.40;;
71973;SDS011;59840;52.122;5.404;2023-03-11T00:05:37;1.85;;;0.20;;
71973;SDS011;59840;52.122;5.404;2023-03-11T00:08:06;1.38;;;0.17;;
71973;SDS011;59840;52.122;5.404;2023-03-11T00:10:35;3.07;;;0.20;;
71973;SDS011;59840;52.122;5.404;2023-03-11T00:13:06;2.33;;;0.20;;
71973;SDS011;59840;52.122;5.404;2023-03-11T00:15:34;1.67;;;0.20;;
71973;SDS011;59840;52.122;5.404;2023-03-11T00:18:01;2.75;;;0.20;;
71973;SDS011;59840;52.122;5.404;2023-03-11T00:20:33;4.47;;;0.32;;
71973;SDS011;59840;52.122;5.404;2023-03-11T00:23:01;2.37;;;0.33;;
71973;SDS011;59840;52.122;5.404;2023-03-11T00:25:30;2.67;;;0.28;;
71973;SDS011;59840;52.122;5.404;2023-03-11T00:27:58;0.40;;;0.10;;
71973;SDS011;59840;52.122;5.404;2023-03-11T00:30:25;3.42;;;0.28;;
71973;SDS011;59840;52.122;5.404;2023-03-11T00:32:53;1.88;;;0.20;;
71973;SDS011;59840;52.122;5.404;2023-03-11T00:35:23;3.97;;;0.37;;
71973;SDS011;59840;52.122;5.404;2023-03-11T00:37:53;2.53;;;0.30;;
71973;SDS011;59840;52.122;5.404;2023-03-11T00:40:21;0.70;;;0.10;;
71973;SDS011;59840;52.122;5.404;2023-03-11T00:42:49;1.80;;;0.20;;
71973;SDS011;59840;52.122;5.404;2023-03-11T00:45:16;0.43;;;0.10;;
71973;SDS011;59840;52.122;5.404;2023-03-11T00:47:42;3.00;;;0.57;;
71973;SDS011;59840;52.122;5.404;2023-03-11T00:50:09;3.40;;;0.22;;
71973;SDS011;59840;52.122;5.404;2023-03-11T00:52:43;2.28;;;0.20;;
71973;SDS011;59840;52.122;5.404;2023-03-11T00:55:12;3.92;;;0.20;;
71973;SDS011;59840;52.122;5.404;2023-03-11T00:57:41;3.30;;;0.15;;
71973;SDS011;59840;52.122;5.404;2023-03-11T01:00:11;3.57;;;0.13;;
71973;SDS011;59840;52.122;5.404;2023-03-11T01:02:42;7.00;;;0.40;;
71973;SDS011;59840;52.122;5.404;2023-03-11T01:05:09;4.38;;;0.40;;
71973;SDS011;59840;52.122;5.404;2023-03-11T01:07:36;1.60;;;0.30;;
71973;SDS011;59840;52.122;5.404;2023-03-11T01:10:03;5.28;;;0.17;;
71973;SDS011;59840;52.122;5.404;2023-03-11T01:12:31;1.03;;;0.30;;
71973;SDS011;59840;52.122;5.404;2023-03-11T01:14:58;6.05;;;0.65;;
71973;SDS011;59840;52.122;5.404;2023-03-11T01:17:24;2.45;;;0.20;;
71973;SDS011;59840;52.122;5.404;2023-03-11T01:19:51;0.50;;;0.10;;
71973;SDS011;59840;52.122;5.404;2023-03-11T01:22:17;4.32;;;0.20;;
71973;SDS011;59840;52.122;5.404;2023-03-11T01:24:44;3.13;;;0.20;;
71973;SDS011;59840;52.122;5.404;2023-03-11T01:27:10;1.05;;;0.15;;
71973;SDS011;59840;52.122;5.404;2023-03-11T01:29:37;4.07;;;0.20;;
71973;SDS011;59840;52.122;5.404;2023-03-11T01:32:03;2.13;;;0.20;;
71973;SDS011;59840;52.122;5.404;2023-03-11T01:34:30;1.50;;;0.35;;
71973;SDS011;59840;52.122;5.404;2023-03-11T01:36:58;1.07;;;0.10;;
71973;SDS011;59840;52.122;5.404;2023-03-11T01:39:25;2.10;;;0.20;;
71973;SDS011;59840;52.122;5.404;2023-03-11T01:41:51;4.82;;;0.22;;
71973;SDS011;59840;52.122;5.404;2023-03-11T01:44:18;5.70;;;0.25;;
71973;SDS011;59840;52.122;5.404;2023-03-11T01:49:18;2.27;;;0.40;;
71973;SDS011;59840;52.122;5.404;2023-03-11T01:51:47;2.42;;;0.20;;
71973;SDS011;59840;52.122;5.404;2023-03-11T01:54:24;2.35;;;0.10;;
71973;SDS011;59840;52.122;5.404;2023-03-11T01:56:53;6.93;;;0.20;;
71973;SDS011;59840;52.122;5.404;2023-03-11T01:59:25;1.92;;;0.50;;
71973;SDS011;59840;52.122;5.404;2023-03-11T02:05:23;1.65;;;0.10;;
71973;SDS011;59840;52.122;5.404;2023-03-11T02:07:51;5.13;;;0.30;;
71973;SDS011;59840;52.122;5.404;2023-03-11T02:10:20;1.30;;;0.10;;
71973;SDS011;59840;52.122;5.404;2023-03-11T02:12:47;2.90;;;0.40;;
71973;SDS011;59840;52.122;5.404;2023-03-11T02:15:16;2.77;;;0.20;;
71973;SDS011;59840;52.122;5.404;2023-03-11T02:17:43;6.63;;;0.52;;
71973;SDS011;59840;52.122;5.404;2023-03-11T02:22:43;8.13;;;0.50;;
71973;SDS011;59840;52.122;5.404;2023-03-11T02:25:33;2.58;;;0.15;;
71973;SDS011;59840;52.122;5.404;2023-03-11T02:28:15;1.57;;;0.23;;
71973;SDS011;59840;52.122;5.404;2023-03-11T02:30:44;3.38;;;0.30;;
71973;SDS011;59840;52.122;5.404;2023-03-11T02:33:13;4.18;;;0.10;;
71973;SDS011;59840;52.122;5.404;2023-03-11T02:35:40;1.27;;;0.10;;
71973;SDS011;59840;52.122;5.404;2023-03-11T02:38:07;4.75;;;0.80;;
71973;SDS011;59840;52.122;5.404;2023-03-11T02:40:45;2.60;;;0.20;;
71973;SDS011;59840;52.122;5.404;2023-03-11T02:43:14;1.45;;;0.10;;
71973;SDS011;59840;52.122;5.404;2023-03-11T02:45:44;2.05;;;0.22;;
71973;SDS011;59840;52.122;5.404;2023-03-11T02:48:13;4.22;;;0.22;;
71973;SDS011;59840;52.122;5.404;2023-03-11T02:50:42;2.35;;;0.17;;
71973;SDS011;59840;52.122;5.404;2023-03-11T02:53:09;1.87;;;0.10;;
71973;SDS011;59840;52.122;5.404;2023-03-11T02:55:36;1.50;;;0.10;;
71973;SDS011;59840;52.122;5.404;2023-03-11T02:58:03;1.10;;;0.10;;
71973;SDS011;59840;52.122;5.404;2023-03-11T03:00:29;2.10;;;0.30;;
71973;SDS011;59840;52.122;5.404;2023-03-11T03:02:56;1.92;;;0.17;;
71973;SDS011;59840;52.122;5.404;2023-03-11T03:05:23;3.17;;;0.30;;
71973;SDS011;59840;52.122;5.404;2023-03-11T03:07:49;5.32;;;0.15;;
71973;SDS011;59840;52.122;5.404;2023-03-11T03:10:16;1.45;;;0.20;;
71973;SDS011;59840;52.122;5.404;2023-03-11T03:12:44;1.92;;;0.32;;
71973;SDS011;59840;52.122;5.404;2023-03-11T03:15:11;5.28;;;0.20;;
71973;SDS011;59840;52.122;5.404;2023-03-11T03:17:37;0.70;;;0.20;;
71973;SDS011;59840;52.122;5.404;2023-03-11T03:20:04;6.18;;;0.20;;
71973;SDS011;59840;52.122;5.404;2023-03-11T03:22:37;3.28;;;0.13;;
71973;SDS011;59840;52.122;5.404;2023-03-11T03:25:04;1.65;;;0.10;;
71973;SDS011;59840;52.122;5.404;2023-03-11T03:27:32;1.25;;;0.30;;
71973;SDS011;59840;52.122;5.404;2023-03-11T03:29:59;2.87;;;0.20;;
71973;SDS011;59840;52.122;5.404;2023-03-11T03:32:26;0.38;;;0.10;;
71973;SDS011;59840;52.122;5.404;2023-03-11T03:34:52;0.63;;;0.25;;
71973;SDS011;59840;52.122;5.404;2023-03-11T03:37:25;1.83;;;0.20;;
71973;SDS011;59840;52.122;5.404;2023-03-11T03:39:53;1.15;;;0.20;;
71973;SDS011;59840;52.122;5.404;2023-03-11T03:42:20;2.77;;;0.20;;
71973;SDS011;59840;52.122;5.404;2023-03-11T03:44:47;0.50;;;0.20;;
71973;SDS011;59840;52.122;5.404;2023-03-11T03:47:13;1.60;;;0.20;;
71973;SDS011;59840;52.122;5.404;2023-03-11T03:49:40;1.67;;;0.22;;
71973;SDS011;59840;52.122;5.404;2023-03-11T03:52:07;2.78;;;0.30;;
71973;SDS011;59840;52.122;5.404;2023-03-11T03:54:33;3.53;;;0.30;;
71973;SDS011;59840;52.122;5.404;2023-03-11T03:57:00;0.90;;;0.30;;
71973;SDS011;59840;52.122;5.404;2023-03-11T03:59:27;2.80;;;0.50;;
71973;SDS011;59840;52.122;5.404;2023-03-11T04:01:54;3.25;;;0.40;;
71973;SDS011;59840;52.122;5.404;2023-03-11T04:04:20;1.17;;;0.10;;
71973;SDS011;59840;52.122;5.404;2023-03-11T04:06:47;1.37;;;0.10;;
71973;SDS011;59840;52.122;5.404;2023-03-11T04:09:14;0.60;;;0.25;;
71973;SDS011;59840;52.122;5.404;2023-03-11T04:11:40;0.70;;;0.30;;
71973;SDS011;59840;52.122;5.404;2023-03-11T04:14:07;1.83;;;0.10;;
71973;SDS011;59840;52.122;5.404;2023-03-11T04:16:33;5.63;;;0.20;;
71973;SDS011;59840;52.122;5.404;2023-03-11T04:19:00;1.10;;;0.17;;
71973;SDS011;59840;52.122;5.404;2023-03-11T04:21:26;0.55;;;0.10;;
71973;SDS011;59840;52.122;5.404;2023-03-11T04:23:53;1.15;;;0.22;;
71973;SDS011;59840;52.122;5.404;2023-03-11T04:26:20;2.85;;;0.20;;
71973;SDS011;59840;52.122;5.404;2023-03-11T04:28:46;5.38;;;0.30;;
71973;SDS011;59840;52.122;5.404;2023-03-11T04:31:13;2.93;;;0.10;;
71973;SDS011;59840;52.122;5.404;2023-03-11T04:33:39;3.30;;;0.10;;
71973;SDS011;59840;52.122;5.404;2023-03-11T04:36:06;0.65;;;0.10;;
71973;SDS011;59840;52.122;5.404;2023-03-11T04:38:34;2.70;;;0.20;;
71973;SDS011;59840;52.122;5.404;2023-03-11T04:41:04;0.77;;;0.10;;
71973;SDS011;59840;52.122;5.404;2023-03-11T04:43:31;2.77;;;0.20;;
71973;SDS011;59840;52.122;5.404;2023-03-11T04:45:59;1.40;;;0.10;;
71973;SDS011;59840;52.122;5.404;2023-03-11T04:48:25;0.30;;;0.10;;
71973;SDS011;59840;52.122;5.404;2023-03-11T04:50:52;2.58;;;0.30;;
71973;SDS011;59840;52.122;5.404;2023-03-11T04:53:20;0.75;;;0.10;;
71973;SDS011;59840;52.122;5.404;2023-03-11T04:55:47;1.90;;;0.33;;
71973;SDS011;59840;52.122;5.404;2023-03-11T04:58:14;0.50;;;0.10;;
71973;SDS011;59840;52.122;5.404;2023-03-11T05:00:40;0.50;;;0.10;;
71973;SDS011;59840;52.122;5.404;2023-03-11T05:03:07;1.58;;;0.15;;
71973;SDS011;59840;52.122;5.404;2023-03-11T05:05:33;2.80;;;0.30;;
71973;SDS011;59840;52.122;5.404;2023-03-11T05:08:00;0.77;;;0.30;;
71973;SDS011;59840;52.122;5.404;2023-03-11T05:10:27;1.50;;;0.10;;
71973;SDS011;59840;52.122;5.404;2023-03-11T05:12:56;1.08;;;0.30;;
71973;SDS011;59840;52.122;5.404;2023-03-11T05:15:23;0.77;;;0.10;;
71973;SDS011;59840;52.122;5.404;2023-03-11T05:17:50;5.28;;;0.40;;
71973;SDS011;59840;52.122;5.404;2023-03-11T05:20:16;0.93;;;0.10;;
71973;SDS011;59840;52.122;5.404;2023-03-11T05:22:43;0.82;;;0.20;;
71973;SDS011;59840;52.122;5.404;2023-03-11T05:25:10;1.77;;;0.10;;
71973;SDS011;59840;52.122;5.404;2023-03-11T05:27:36;1.40;;;0.13;;
71973;SDS011;59840;52.122;5.404;2023-03-11T05:30:03;1.05;;;0.70;;
71973;SDS011;59840;52.122;5.404;2023-03-11T05:32:30;1.13;;;0.10;;
71973;SDS011;59840;52.122;5.404;2023-03-11T05:34:56;0.75;;;0.10;;
71973;SDS011;59840;52.122;5.404;2023-03-11T05:37:23;0.50;;;0.10;;
71973;SDS011;59840;52.122;5.404;2023-03-11T05:39:50;1.25;;;0.17;;
71973;SDS011;59840;52.122;5.404;2023-03-11T05:42:17;3.03;;;0.30;;
71973;SDS011;59840;52.122;5.404;2023-03-11T05:44:46;1.73;;;0.10;;
71973;SDS011;59840;52.122;5.404;2023-03-11T05:47:13;0.40;;;0.08;;
71973;SDS011;59840;52.122;5.404;2023-03-11T05:49:41;0.32;;;0.10;;
71973;SDS011;59840;52.122;5.404;2023-03-11T05:52:07;3.53;;;0.22;;
71973;SDS011;59840;52.122;5.404;2023-03-11T05:54:34;0.47;;;0.10;;
71973;SDS011;59840;52.122;5.404;2023-03-11T05:57:01;1.93;;;0.20;;
71973;SDS011;59840;52.122;5.404;2023-03-11T05:59:27;1.98;;;0.17;;
71973;SDS011;59840;52.122;5.404;2023-03-11T06:01:54;0.50;;;0.13;;
71973;SDS011;59840;52.122;5.404;2023-03-11T06:04:20;1.05;;;0.10;;
71973;SDS011;59840;52.122;5.404;2023-03-11T06:06:47;3.83;;;0.20;;
71973;SDS011;59840;52.122;5.404;2023-03-11T06:09:14;1.30;;;0.60;;
71973;SDS011;59840;52.122;5.404;2023-03-11T06:11:41;7.75;;;0.20;;
71973;SDS011;59840;52.122;5.404;2023-03-11T06:14:11;0.38;;;0.10;;
71973;SDS011;59840;52.122;5.404;2023-03-11T06:16:39;0.30;;;0.10;;
71973;SDS011;59840;52.122;5.404;2023-03-11T06:19:07;0.95;;;0.10;;
71973;SDS011;59840;52.122;5.404;2023-03-11T06:21:34;2.87;;;0.30;;
71973;SDS011;59840;52.122;5.404;2023-03-11T06:24:00;1.27;;;0.00;;
71973;SDS011;59840;52.122;5.404;2023-03-11T06:26:27;1.25;;;0.10;;
71973;SDS011;59840;52.122;5.404;2023-03-11T06:28:53;0.30;;;0.10;;
71973;SDS011;59840;52.122;5.404;2023-03-11T06:31:21;1.48;;;0.10;;
71973;SDS011;59840;52.122;5.404;2023-03-11T06:33:50;0.83;;;0.20;;
71973;SDS011;59840;52.122;5.404;2023-03-11T06:36:19;0.43;;;0.10;;
71973;SDS011;59840;52.122;5.404;2023-03-11T06:38:45;2.10;;;0.10;;
71973;SDS011;59840;52.122;5.404;2023-03-11T06:41:13;3.35;;;0.20;;
71973;SDS011;59840;52.122;5.404;2023-03-11T06:43:40;0.63;;;0.20;;
71973;SDS011;59840;52.122;5.404;2023-03-11T06:46:08;1.57;;;0.10;;
71973;SDS011;59840;52.122;5.404;2023-03-11T06:48:36;0.85;;;0.20;;
71973;SDS011;59840;52.122;5.404;2023-03-11T06:51:02;1.38;;;0.30;;
71973;SDS011;59840;52.122;5.404;2023-03-11T06:53:29;0.50;;;0.10;;
71973;SDS011;59840;52.122;5.404;2023-03-11T06:56:03;0.32;;;0.08;;
71973;SDS011;59840;52.122;5.404;2023-03-11T06:58:35;0.43;;;0.20;;
71973;SDS011;59840;52.122;5.404;2023-03-11T07:01:05;1.38;;;0.13;;
71973;SDS011;59840;52.122;5.404;2023-03-11T07:03:33;3.40;;;0.20;;
71973;SDS011;59840;52.122;5.404;2023-03-11T07:06:00;0.77;;;0.20;;
71973;SDS011;59840;52.122;5.404;2023-03-11T07:08:27;0.75;;;0.10;;
71973;SDS011;59840;52.122;5.404;2023-03-11T07:11:04;2.10;;;0.40;;
71973;SDS011;59840;52.122;5.404;2023-03-11T07:13:33;2.25;;;0.15;;
71973;SDS011;59840;52.122;5.404;2023-03-11T07:18:27;2.63;;;0.30;;
71973;SDS011;59840;52.122;5.404;2023-03-11T07:20:54;2.67;;;0.60;;
71973;SDS011;59840;52.122;5.404;2023-03-11T07:23:21;1.03;;;0.30;;
71973;SDS011;59840;52.122;5.404;2023-03-11T07:25:49;2.58;;;0.35;;
71973;SDS011;59840;52.122;5.404;2023-03-11T07:28:17;0.47;;;0.20;;
71973;SDS011;59840;52.122;5.404;2023-03-11T07:30:44;0.82;;;0.17;;
71973;SDS011;59840;52.122;5.404;2023-03-11T07:33:11;3.45;;;0.25;;
71973;SDS011;59840;52.122;5.404;2023-03-11T07:35:39;3.10;;;0.20;;
71973;SDS011;59840;52.122;5.404;2023-03-11T07:38:05;3.63;;;0.30;;
71973;SDS011;59840;52.122;5.404;2023-03-11T07:40:32;1.30;;;0.30;;
71973;SDS011;59840;52.122;5.404;2023-03-11T07:42:58;2.85;;;0.22;;
71973;SDS011;59840;52.122;5.404;2023-03-11T07:45:25;1.08;;;0.28;;
71973;SDS011;59840;52.122;5.404;2023-03-11T07:47:52;0.30;;;0.20;;
71973;SDS011;59840;52.122;5.404;2023-03-11T07:50:18;3.60;;;0.32;;
71973;SDS011;59840;52.122;5.404;2023-03-11T07:52:47;1.10;;;0.28;;
71973;SDS011;59840;52.122;5.404;2023-03-11T07:55:13;0.80;;;0.30;;
71973;SDS011;59840;52.122;5.404;2023-03-11T07:57:40;1.55;;;0.15;;
71973;SDS011;59840;52.122;5.404;2023-03-11T08:00:08;0.50;;;0.10;;
71973;SDS011;59840;52.122;5.404;2023-03-11T08:02:35;3.15;;;0.20;;
71973;SDS011;59840;52.122;5.404;2023-03-11T08:05:02;2.60;;;0.73;;
71973;SDS011;59840;52.122;5.404;2023-03-11T08:07:30;2.28;;;0.20;;
71973;SDS011;59840;52.122;5.404;2023-03-11T08:09:57;0.43;;;0.10;;
71973;SDS011;59840;52.122;5.404;2023-03-11T08:12:24;2.50;;;0.50;;
71973;SDS011;59840;52.122;5.404;2023-03-11T08:14:50;1.08;;;0.20;;
71973;SDS011;59840;52.122;5.404;2023-03-11T08:17:17;3.45;;;0.50;;
71973;SDS011;59840;52.122;5.404;2023-03-11T08:19:43;1.98;;;0.30;;
71973;SDS011;59840;52.122;5.404;2023-03-11T08:22:10;3.15;;;0.40;;
71973;SDS011;59840;52.122;5.404;2023-03-11T08:24:36;1.77;;;0.20;;
71973;SDS011;59840;52.122;5.404;2023-03-11T08:27:03;0.40;;;0.20;;
71973;SDS011;59840;52.122;5.404;2023-03-11T08:29:29;0.93;;;0.20;;
71973;SDS011;59840;52.122;5.404;2023-03-11T08:31:56;1.27;;;0.30;;
71973;SDS011;59840;52.122;5.404;2023-03-11T10:26:04;3.00;;;0.20;;
71973;SDS011;59840;52.122;5.404;2023-03-11T10:28:42;2.63;;;0.30;;
71973;SDS011;59840;52.122;5.404;2023-03-11T10:42:59;2.00;;;0.10;;
71973;SDS011;59840;52.122;5.404;2023-03-11T10:45:32;1.52;;;0.30;;
71973;SDS011;59840;52.122;5.404;2023-03-11T10:48:07;1.75;;;0.25;;
71973;SDS011;59840;52.122;5.404;2023-03-11T10:50:35;2.50;;;0.20;;
71973;SDS011;59840;52.122;5.404;2023-03-11T10:53:12;1.67;;;0.25;;
71973;SDS011;59840;52.122;5.404;2023-03-11T10:55:48;3.80;;;0.30;;
71973;SDS011;59840;52.122;5.404;2023-03-11T10:58:18;0.50;;;0.20;;
71973;SDS011;59840;52.122;5.404;2023-03-11T11:01:03;2.60;;;0.20;;
71973;SDS011;59840;52.122;5.404;2023-03-11T11:03:41;2.63;;;0.55;;
71973;SDS011;59840;52.122;5.404;2023-03-11T11:06:18;2.03;;;0.30;;
71973;SDS011;59840;52.122;5.404;2023-03-11T11:11:42;3.45;;;0.30;;
71973;SDS011;59840;52.122;5.404;2023-03-11T11:14:24;6.93;;;0.40;;
71973;SDS011;59840;52.122;5.404;2023-03-11T11:16:51;4.40;;;0.32;;
71973;SDS011;59840;52.122;5.404;2023-03-11T11:19:18;2.50;;;0.20;;
71973;SDS011;59840;52.122;5.404;2023-03-11T11:21:48;4.83;;;0.17;;
71973;SDS011;59840;52.122;5.404;2023-03-11T11:24:24;0.88;;;0.20;;
71973;SDS011;59840;52.122;5.404;2023-03-11T11:32:35;3.20;;;0.52;;
71973;SDS011;59840;52.122;5.404;2023-03-11T11:35:03;1.53;;;0.20;;
71973;SDS011;59840;52.122;5.404;2023-03-11T11:37:33;2.15;;;0.45;;
71973;SDS011;59840;52.122;5.404;2023-03-11T11:42:46;0.75;;;0.10;;
71973;SDS011;59840;52.122;5.404;2023-03-11T11:45:28;1.95;;;0.10;;
71973;SDS011;59840;52.122;5.404;2023-03-11T11:48:16;1.77;;;0.20;;
71973;SDS011;59840;52.122;5.404;2023-03-11T11:50:56;2.55;;;0.20;;
71973;SDS011;59840;52.122;5.404;2023-03-11T11:53:34;1.25;;;0.20;;
71973;SDS011;59840;52.122;5.404;2023-03-11T11:56:14;2.53;;;0.40;;
71973;SDS011;59840;52.122;5.404;2023-03-11T11:58:41;2.20;;;0.20;;
71973;SDS011;59840;52.122;5.404;2023-03-11T12:01:15;1.50;;;0.10;;
71973;SDS011;59840;52.122;5.404;2023-03-11T12:09:39;0.55;;;0.20;;
71973;SDS011;59840;52.122;5.404;2023-03-11T12:12:22;1.50;;;0.88;;
71973;SDS011;59840;52.122;5.404;2023-03-11T12:15:14;3.03;;;0.10;;
71973;SDS011;59840;52.122;5.404;2023-03-11T12:17:46;2.28;;;0.28;;
71973;SDS011;59840;52.122;5.404;2023-03-11T12:20:19;1.02;;;0.20;;
71973;SDS011;59840;52.122;5.404;2023-03-11T12:25:54;4.40;;;0.20;;
71973;SDS011;59840;52.122;5.404;2023-03-11T12:31:16;0.75;;;0.10;;
71973;SDS011;59840;52.122;5.404;2023-03-11T12:33:45;1.85;;;0.20;;
71973;SDS011;59840;52.122;5.404;2023-03-11T12:36:47;1.50;;;0.20;;
71973;SDS011;59840;52.122;5.404;2023-03-11T12:39:17;1.58;;;0.20;;
71973;SDS011;59840;52.122;5.404;2023-03-11T12:44:50;2.17;;;0.20;;
71973;SDS011;59840;52.122;5.404;2023-03-11T12:47:18;2.47;;;0.30;;
71973;SDS011;59840;52.122;5.404;2023-03-11T12:49:53;1.60;;;0.10;;
71973;SDS011;59840;52.122;5.404;2023-03-11T12:52:22;1.27;;;0.10;;
71973;SDS011;59840;52.122;5.404;2023-03-11T13:03:26;2.67;;;0.10;;
71973;SDS011;59840;52.122;5.404;2023-03-11T13:08:56;1.67;;;0.10;;
71973;SDS011;59840;52.122;5.404;2023-03-11T13:14:09;0.25;;;0.10;;
71973;SDS011;59840;52.122;5.404;2023-03-11T13:19:53;1.20;;;0.10;;
71973;SDS011;59840;52.122;5.404;2023-03-11T13:22:41;1.47;;;0.20;;
71973;SDS011;59840;52.122;5.404;2023-03-11T13:25:23;1.40;;;0.10;;
71973;SDS011;59840;52.122;5.404;2023-03-11T13:27:54;1.42;;;0.10;;
71973;SDS011;59840;52.122;5.404;2023-03-11T13:30:31;6.07;;;0.10;;
71973;SDS011;59840;52.122;5.404;2023-03-11T13:41:42;1.52;;;0.10;;
71973;SDS011;59840;52.122;5.404;2023-03-11T13:44:12;0.38;;;0.10;;
71973;SDS011;59840;52.122;5.404;2023-03-11T13:46:55;0.65;;;0.10;;
71973;SDS011;59840;52.122;5.404;2023-03-11T13:49:38;1.43;;;0.10;;
71973;SDS011;59840;52.122;5.404;2023-03-11T13:52:11;2.85;;;0.20;;
71973;SDS011;59840;52.122;5.404;2023-03-11T13:54:41;0.93;;;0.15;;
71973;SDS011;59840;52.122;5.404;2023-03-11T13:57:32;1.10;;;0.10;;
71973;SDS011;59840;52.122;5.404;2023-03-11T14:00:05;0.77;;;0.20;;
71973;SDS011;59840;52.122;5.404;2023-03-11T14:03:03;2.23;;;0.10;;
71973;SDS011;59840;52.122;5.404;2023-03-11T14:10:37;1.33;;;0.10;;
71973;SDS011;59840;52.122;5.404;2023-03-11T14:13:05;0.98;;;0.10;;
71973;SDS011;59840;52.122;5.404;2023-03-11T14:15:56;0.93;;;0.00;;
71973;SDS011;59840;52.122;5.404;2023-03-11T14:18:24;0.82;;;0.10;;
71973;SDS011;59840;52.122;5.404;2023-03-11T14:20:51;0.43;;;0.10;;
71973;SDS011;59840;52.122;5.404;2023-03-11T14:23:18;1.45;;;0.10;;
71973;SDS011;59840;52.122;5.404;2023-03-11T14:25:45;0.38;;;0.05;;
71973;SDS011;59840;52.122;5.404;2023-03-11T14:28:16;0.50;;;0.10;;
71973;SDS011;59840;52.122;5.404;2023-03-11T14:30:54;0.43;;;0.10;;
71973;SDS011;59840;52.122;5.404;2023-03-11T14:33:23;1.02;;;0.20;;
71973;SDS011;59840;52.122;5.404;2023-03-11T14:36:11;2.03;;;0.10;;
71973;SDS011;59840;52.122;5.404;2023-03-11T14:38:41;1.85;;;0.10;;
71973;SDS011;59840;52.122;5.404;2023-03-11T14:41:09;1.03;;;0.10;;
71973;SDS011;59840;52.122;5.404;2023-03-11T14:43:40;1.40;;;0.20;;
71973;SDS011;59840;52.122;5.404;2023-03-11T14:46:14;0.60;;;0.20;;
71973;SDS011;59840;52.122;5.404;2023-03-11T14:48:46;1.48;;;0.10;;
71973;SDS011;59840;52.122;5.404;2023-03-11T14:51:25;1.13;;;0.10;;
71973;SDS011;59840;52.122;5.404;2023-03-11T14:56:58;0.57;;;0.10;;
71973;SDS011;59840;52.122;5.404;2023-03-11T14:59:31;1.52;;;0.10;;
71973;SDS011;59840;52.122;5.404;2023-03-11T15:02:05;1.52;;;0.20;;
71973;SDS011;59840;52.122;5.404;2023-03-11T15:04:52;0.98;;;0.10;;
71973;SDS011;59840;52.122;5.404;2023-03-11T15:07:24;1.10;;;0.30;;
71973;SDS011;59840;52.122;5.404;2023-03-11T15:09:50;0.60;;;0.20;;
71973;SDS011;59840;52.122;5.404;2023-03-11T15:12:30;0.57;;;0.10;;
71973;SDS011;59840;52.122;5.404;2023-03-11T15:14:59;0.73;;;0.10;;
71973;SDS011;59840;52.122;5.404;2023-03-11T15:17:26;0.73;;;0.15;;
71973;SDS011;59840;52.122;5.404;2023-03-11T15:23:15;0.20;;;0.10;;
71973;SDS011;59840;52.122;5.404;2023-03-11T15:25:47;1.60;;;0.20;;
71973;SDS011;59840;52.122;5.404;2023-03-11T15:28:26;1.45;;;0.20;;
71973;SDS011;59840;52.122;5.404;2023-03-11T15:39:18;0.85;;;0.20;;
71973;SDS011;59840;52.122;5.404;2023-03-11T15:47:34;1.67;;;0.20;;
71973;SDS011;59840;52.122;5.404;2023-03-11T15:50:01;0.68;;;0.20;;
71973;SDS011;59840;52.122;5.404;2023-03-11T15:52:53;1.10;;;0.68;;
71973;SDS011;59840;52.122;5.404;2023-03-11T15:55:23;0.50;;;0.10;;
71973;SDS011;59840;52.122;5.404;2023-03-11T15:57:55;2.03;;;0.10;;
71973;SDS011;59840;52.122;5.404;2023-03-11T16:00:28;0.70;;;0.10;;
71973;SDS011;59840;52.122;5.404;2023-03-11T16:02:55;1.75;;;0.10;;
71973;SDS011;59840;52.122;5.404;2023-03-11T16:05:22;0.50;;;0.15;;
71973;SDS011;59840;52.122;5.404;2023-03-11T16:07:50;1.17;;;0.10;;
71973;SDS011;59840;52.122;5.404;2023-03-11T16:10:18;0.77;;;0.10;;
71973;SDS011;59840;52.122;5.404;2023-03-11T16:12:46;0.63;;;0.13;;
71973;SDS011;59840;52.122;5.404;2023-03-11T16:15:21;3.50;;;0.10;;
71973;SDS011;59840;52.122;5.404;2023-03-11T16:17:50;0.90;;;0.15;;
71973;SDS011;59840;52.122;5.404;2023-03-11T16:20:18;0.20;;;0.10;;
71973;SDS011;59840;52.122;5.404;2023-03-11T16:22:47;0.77;;;0.13;;
71973;SDS011;59840;52.122;5.404;2023-03-11T16:25:25;1.80;;;0.27;;
71973;SDS011;59840;52.122;5.404;2023-03-11T16:27:56;0.75;;;0.10;;
71973;SDS011;59840;52.122;5.404;2023-03-11T16:30:25;0.43;;;0.10;;
71973;SDS011;59840;52.122;5.404;2023-03-11T16:32:53;2.13;;;0.30;;
71973;SDS011;59840;52.122;5.404;2023-03-11T16:35:20;1.77;;;0.10;;
71973;SDS011;59840;52.122;5.404;2023-03-11T16:37:47;2.73;;;0.20;;
71973;SDS011;59840;52.122;5.404;2023-03-11T16:40:15;2.42;;;0.13;;
71973;SDS011;59840;52.122;5.404;2023-03-11T16:42:45;0.77;;;0.20;;
71973;SDS011;59840;52.122;5.404;2023-03-11T16:45:14;0.40;;;0.10;;
71973;SDS011;59840;52.122;5.404;2023-03-11T16:47:42;0.65;;;0.20;;
71973;SDS011;59840;52.122;5.404;2023-03-11T16:50:08;1.03;;;0.20;;
71973;SDS011;59840;52.122;5.404;2023-03-11T16:52:36;1.35;;;0.60;;
71973;SDS011;59840;52.122;5.404;2023-03-11T16:55:02;2.45;;;0.40;;
71973;SDS011;59840;52.122;5.404;2023-03-11T16:57:29;0.85;;;0.20;;
71973;SDS011;59840;52.122;5.404;2023-03-11T16:59:56;0.65;;;0.20;;
71973;SDS011;59840;52.122;5.404;2023-03-11T17:02:23;1.77;;;0.30;;
71973;SDS011;59840;52.122;5.404;2023-03-11T17:04:50;1.10;;;0.40;;
71973;SDS011;59840;52.122;5.404;2023-03-11T17:07:17;1.58;;;0.60;;
71973;SDS011;59840;52.122;5.404;2023-03-11T17:09:43;2.45;;;0.45;;
71973;SDS011;59840;52.122;5.404;2023-03-11T17:12:10;2.70;;;0.40;;
71973;SDS011;59840;52.122;5.404;2023-03-11T17:14:41;2.17;;;0.30;;
71973;SDS011;59840;52.122;5.404;2023-03-11T17:17:07;1.88;;;0.30;;
71973;SDS011;59840;52.122;5.404;2023-03-11T17:19:34;3.28;;;0.30;;
71973;SDS011;59840;52.122;5.404;2023-03-11T17:22:00;1.55;;;0.30;;
71973;SDS011;59840;52.122;5.404;2023-03-11T17:24:28;2.70;;;1.00;;
71973;SDS011;59840;52.122;5.404;2023-03-11T17:26:54;4.37;;;1.40;;
71973;SDS011;59840;52.122;5.404;2023-03-11T17:29:21;7.50;;;3.30;;
71973;SDS011;59840;52.122;5.404;2023-03-11T17:31:48;3.35;;;2.28;;
71973;SDS011;59840;52.122;5.404;2023-03-11T17:34:14;3.97;;;1.73;;
71973;SDS011;59840;52.122;5.404;2023-03-11T17:36:41;1.92;;;0.70;;
71973;SDS011;59840;52.122;5.404;2023-03-11T17:39:08;5.10;;;0.67;;
71973;SDS011;59840;52.122;5.404;2023-03-11T17:41:34;2.63;;;0.50;;
71973;SDS011;59840;52.122;5.404;2023-03-11T17:44:01;6.35;;;0.85;;
71973;SDS011;59840;52.122;5.404;2023-03-11T17:46:27;1.75;;;0.65;;
71973;SDS011;59840;52.122;5.404;2023-03-11T17:48:54;2.40;;;0.70;;
71973;SDS011;59840;52.122;5.404;2023-03-11T17:51:22;1.80;;;0.63;;
71973;SDS011;59840;52.122;5.404;2023-03-11T17:53:52;6.68;;;0.80;;
71973;SDS011;59840;52.122;5.404;2023-03-11T17:56:20;3.05;;;0.95;;
71973;SDS011;59840;52.122;5.404;2023-03-11T17:58:47;3.67;;;0.85;;
71973;SDS011;59840;52.122;5.404;2023-03-11T18:01:16;3.53;;;1.05;;
71973;SDS011;59840;52.122;5.404;2023-03-11T18:03:44;1.73;;;0.50;;
71973;SDS011;59840;52.122;5.404;2023-03-11T18:06:11;3.55;;;0.52;;
71973;SDS011;59840;52.122;5.404;2023-03-11T18:08:39;3.75;;;1.17;;
71973;SDS011;59840;52.122;5.404;2023-03-11T18:11:07;4.60;;;0.98;;
71973;SDS011;59840;52.122;5.404;2023-03-11T18:13:35;5.07;;;1.25;;
71973;SDS011;59840;52.122;5.404;2023-03-11T18:16:04;5.43;;;1.37;;
71973;SDS011;59840;52.122;5.404;2023-03-11T18:18:33;4.80;;;1.50;;
71973;SDS011;59840;52.122;5.404;2023-03-11T18:21:01;4.07;;;1.45;;
71973;SDS011;59840;52.122;5.404;2023-03-11T18:23:38;5.25;;;1.25;;
71973;SDS011;59840;52.122;5.404;2023-03-11T18:26:06;2.75;;;1.38;;
71973;SDS011;59840;52.122;5.404;2023-03-11T18:28:33;3.77;;;2.10;;
71973;SDS011;59840;52.122;5.404;2023-03-11T18:31:05;7.78;;;2.28;;
71973;SDS011;59840;52.122;5.404;2023-03-11T18:33:36;10.73;;;2.85;;